Terminal Aerodrome Forecast
Issued by NWS

Home | Current Version | Previous Version | Graphics & Text | Print | Product List | Glossary On
Versions: 1 2 3 4 5 6 7 8 9 10 11 12 13 14 15 16 17
000
FTUS43 KABR 291030 AAA
TAFPIR
TAF AMD
KPIR 291030Z 2911/3006 VRB05KT P6SM SKC
     FM291500 33006KT P6SM SKC
     FM291900 VRB06KT P6SM SCT250
     FM292300 12006KT P6SM VCSH BKN100 BKN250=

USA.gov is the U.S. government's official web portal to all federal, state and local government web resources and services.